sensor_id;sensor_type;location;lat;lon;timestamp;P1;durP1;ratioP1;P2;durP2;ratioP2
75165;SDS011;63747;48.042;10.088;2022-11-12T00:00:09;150.10;;;7.40;;
75165;SDS011;63747;48.042;10.088;2022-11-12T00:03:11;72.72;;;6.20;;
75165;SDS011;63747;48.042;10.088;2022-11-12T00:06:11;81.20;;;6.27;;
75165;SDS011;63747;48.042;10.088;2022-11-12T00:09:12;83.43;;;6.57;;
75165;SDS011;63747;48.042;10.088;2022-11-12T00:12:13;151.87;;;8.67;;
75165;SDS011;63747;48.042;10.088;2022-11-12T00:15:14;142.93;;;6.87;;
75165;SDS011;63747;48.042;10.088;2022-11-12T00:18:14;86.03;;;6.83;;
75165;SDS011;63747;48.042;10.088;2022-11-12T00:21:15;90.57;;;6.93;;
75165;SDS011;63747;48.042;10.088;2022-11-12T00:24:16;68.40;;;6.53;;
75165;SDS011;63747;48.042;10.088;2022-11-12T00:27:17;183.67;;;10.07;;
75165;SDS011;63747;48.042;10.088;2022-11-12T00:30:17;98.90;;;7.63;;
75165;SDS011;63747;48.042;10.088;2022-11-12T00:33:18;49.70;;;6.30;;
75165;SDS011;63747;48.042;10.088;2022-11-12T00:36:19;41.17;;;5.17;;
75165;SDS011;63747;48.042;10.088;2022-11-12T00:39:20;89.23;;;5.97;;
75165;SDS011;63747;48.042;10.088;2022-11-12T00:42:20;105.60;;;7.73;;
75165;SDS011;63747;48.042;10.088;2022-11-12T00:45:21;113.43;;;7.83;;
75165;SDS011;63747;48.042;10.088;2022-11-12T00:48:22;85.53;;;6.47;;
75165;SDS011;63747;48.042;10.088;2022-11-12T00:51:23;84.27;;;5.47;;
75165;SDS011;63747;48.042;10.088;2022-11-12T00:54:24;93.77;;;9.67;;
75165;SDS011;63747;48.042;10.088;2022-11-12T00:57:25;69.70;;;5.77;;
75165;SDS011;63747;48.042;10.088;2022-11-12T01:00:25;164.67;;;8.30;;
75165;SDS011;63747;48.042;10.088;2022-11-12T01:03:26;121.63;;;8.37;;
75165;SDS011;63747;48.042;10.088;2022-11-12T01:06:27;98.87;;;7.43;;
75165;SDS011;63747;48.042;10.088;2022-11-12T01:09:28;30.40;;;5.10;;
75165;SDS011;63747;48.042;10.088;2022-11-12T01:12:31;133.00;;;7.43;;
75165;SDS011;63747;48.042;10.088;2022-11-12T01:15:32;124.63;;;6.38;;
75165;SDS011;63747;48.042;10.088;2022-11-12T01:18:33;151.30;;;7.13;;
75165;SDS011;63747;48.042;10.088;2022-11-12T01:21:36;188.33;;;9.77;;
75165;SDS011;63747;48.042;10.088;2022-11-12T01:24:39;125.53;;;9.73;;
75165;SDS011;63747;48.042;10.088;2022-11-12T01:27:40;94.87;;;7.13;;
75165;SDS011;63747;48.042;10.088;2022-11-12T01:30:41;60.83;;;6.90;;
75165;SDS011;63747;48.042;10.088;2022-11-12T01:33:42;100.87;;;7.53;;
75165;SDS011;63747;48.042;10.088;2022-11-12T01:36:44;107.82;;;7.28;;
75165;SDS011;63747;48.042;10.088;2022-11-12T01:39:44;196.30;;;10.50;;
75165;SDS011;63747;48.042;10.088;2022-11-12T01:42:49;100.83;;;7.77;;
75165;SDS011;63747;48.042;10.088;2022-11-12T01:45:51;63.67;;;5.78;;
75165;SDS011;63747;48.042;10.088;2022-11-12T01:49:00;104.93;;;7.30;;
75165;SDS011;63747;48.042;10.088;2022-11-12T01:55:42;96.20;;;6.47;;
75165;SDS011;63747;48.042;10.088;2022-11-12T01:58:43;72.33;;;6.00;;
75165;SDS011;63747;48.042;10.088;2022-11-12T02:01:46;136.93;;;7.05;;
75165;SDS011;63747;48.042;10.088;2022-11-12T02:04:47;85.27;;;6.00;;
75165;SDS011;63747;48.042;10.088;2022-11-12T02:07:49;112.43;;;6.93;;
75165;SDS011;63747;48.042;10.088;2022-11-12T02:10:51;45.35;;;4.63;;
75165;SDS011;63747;48.042;10.088;2022-11-12T02:13:52;56.63;;;5.23;;
75165;SDS011;63747;48.042;10.088;2022-11-12T02:16:56;139.15;;;8.23;;
75165;SDS011;63747;48.042;10.088;2022-11-12T02:19:58;80.50;;;5.53;;
75165;SDS011;63747;48.042;10.088;2022-11-12T02:23:00;78.30;;;5.60;;
75165;SDS011;63747;48.042;10.088;2022-11-12T02:26:00;108.20;;;6.30;;
75165;SDS011;63747;48.042;10.088;2022-11-12T02:29:01;82.33;;;5.23;;
75165;SDS011;63747;48.042;10.088;2022-11-12T02:32:02;69.50;;;5.07;;
75165;SDS011;63747;48.042;10.088;2022-11-12T02:35:03;54.63;;;4.87;;
75165;SDS011;63747;48.042;10.088;2022-11-12T02:38:04;102.75;;;6.53;;
75165;SDS011;63747;48.042;10.088;2022-11-12T02:41:06;74.72;;;6.10;;
75165;SDS011;63747;48.042;10.088;2022-11-12T02:44:06;89.80;;;9.23;;
75165;SDS011;63747;48.042;10.088;2022-11-12T02:47:07;74.53;;;11.73;;
75165;SDS011;63747;48.042;10.088;2022-11-12T02:50:08;155.93;;;15.70;;
75165;SDS011;63747;48.042;10.088;2022-11-12T02:53:09;88.88;;;14.30;;
75165;SDS011;63747;48.042;10.088;2022-11-12T02:56:10;53.23;;;11.50;;
75165;SDS011;63747;48.042;10.088;2022-11-12T02:59:10;49.70;;;10.30;;
75165;SDS011;63747;48.042;10.088;2022-11-12T03:02:11;50.20;;;9.53;;
75165;SDS011;63747;48.042;10.088;2022-11-12T03:05:12;86.43;;;8.83;;
75165;SDS011;63747;48.042;10.088;2022-11-12T03:08:12;31.17;;;8.03;;
75165;SDS011;63747;48.042;10.088;2022-11-12T03:11:14;34.37;;;8.27;;
75165;SDS011;63747;48.042;10.088;2022-11-12T03:14:16;45.28;;;8.38;;
75165;SDS011;63747;48.042;10.088;2022-11-12T03:17:17;35.03;;;7.07;;
75165;SDS011;63747;48.042;10.088;2022-11-12T03:20:18;40.77;;;6.97;;
75165;SDS011;63747;48.042;10.088;2022-11-12T03:23:19;30.10;;;5.75;;
75165;SDS011;63747;48.042;10.088;2022-11-12T03:26:20;20.60;;;5.90;;
75165;SDS011;63747;48.042;10.088;2022-11-12T03:29:20;15.83;;;5.53;;
75165;SDS011;63747;48.042;10.088;2022-11-12T03:32:21;53.70;;;6.30;;
75165;SDS011;63747;48.042;10.088;2022-11-12T03:35:22;18.63;;;5.37;;
75165;SDS011;63747;48.042;10.088;2022-11-12T03:38:25;17.08;;;5.30;;
75165;SDS011;63747;48.042;10.088;2022-11-12T03:41:26;15.50;;;5.83;;
75165;SDS011;63747;48.042;10.088;2022-11-12T03:44:27;21.87;;;5.70;;
75165;SDS011;63747;48.042;10.088;2022-11-12T03:47:28;17.40;;;6.10;;
75165;SDS011;63747;48.042;10.088;2022-11-12T03:50:28;11.37;;;6.27;;
75165;SDS011;63747;48.042;10.088;2022-11-12T03:53:32;23.33;;;7.72;;
75165;SDS011;63747;48.042;10.088;2022-11-12T03:56:33;28.63;;;8.40;;
75165;SDS011;63747;48.042;10.088;2022-11-12T03:59:34;16.83;;;7.53;;
75165;SDS011;63747;48.042;10.088;2022-11-12T04:02:34;16.23;;;8.20;;
75165;SDS011;63747;48.042;10.088;2022-11-12T04:05:35;12.67;;;8.60;;
75165;SDS011;63747;48.042;10.088;2022-11-12T04:08:55;16.65;;;8.85;;
75165;SDS011;63747;48.042;10.088;2022-11-12T04:15:17;17.52;;;9.75;;
75165;SDS011;63747;48.042;10.088;2022-11-12T04:18:18;13.03;;;8.83;;
75165;SDS011;63747;48.042;10.088;2022-11-12T04:24:50;11.07;;;7.70;;
75165;SDS011;63747;48.042;10.088;2022-11-12T04:28:10;9.50;;;7.47;;
75165;SDS011;63747;48.042;10.088;2022-11-12T04:31:10;9.03;;;7.23;;
75165;SDS011;63747;48.042;10.088;2022-11-12T04:34:11;7.93;;;6.40;;
75165;SDS011;63747;48.042;10.088;2022-11-12T04:37:28;7.47;;;5.90;;
75165;SDS011;63747;48.042;10.088;2022-11-12T04:40:44;8.43;;;6.75;;
75165;SDS011;63747;48.042;10.088;2022-11-12T04:44:03;7.15;;;5.95;;
75165;SDS011;63747;48.042;10.088;2022-11-12T04:47:23;7.82;;;6.00;;
75165;SDS011;63747;48.042;10.088;2022-11-12T04:50:24;7.87;;;6.40;;
75165;SDS011;63747;48.042;10.088;2022-11-12T04:53:25;7.43;;;6.03;;
75165;SDS011;63747;48.042;10.088;2022-11-12T04:56:27;7.22;;;6.20;;
75165;SDS011;63747;48.042;10.088;2022-11-12T04:59:27;7.33;;;6.37;;
75165;SDS011;63747;48.042;10.088;2022-11-12T05:02:28;6.87;;;5.83;;
75165;SDS011;63747;48.042;10.088;2022-11-12T05:05:29;7.87;;;6.40;;
75165;SDS011;63747;48.042;10.088;2022-11-12T05:08:30;8.03;;;6.00;;
75165;SDS011;63747;48.042;10.088;2022-11-12T05:11:31;7.73;;;6.47;;
75165;SDS011;63747;48.042;10.088;2022-11-12T05:14:31;10.07;;;6.73;;
75165;SDS011;63747;48.042;10.088;2022-11-12T05:17:32;14.93;;;7.30;;
75165;SDS011;63747;48.042;10.088;2022-11-12T05:20:33;15.77;;;8.83;;
75165;SDS011;63747;48.042;10.088;2022-11-12T05:23:34;22.98;;;11.45;;
75165;SDS011;63747;48.042;10.088;2022-11-12T05:26:35;31.87;;;12.60;;
75165;SDS011;63747;48.042;10.088;2022-11-12T05:29:36;34.93;;;12.97;;
75165;SDS011;63747;48.042;10.088;2022-11-12T05:32:37;42.22;;;13.35;;
75165;SDS011;63747;48.042;10.088;2022-11-12T05:35:38;32.70;;;13.10;;
75165;SDS011;63747;48.042;10.088;2022-11-12T05:38:39;39.73;;;13.60;;
75165;SDS011;63747;48.042;10.088;2022-11-12T05:41:39;53.33;;;13.20;;
75165;SDS011;63747;48.042;10.088;2022-11-12T05:44:40;42.50;;;13.33;;
75165;SDS011;63747;48.042;10.088;2022-11-12T05:47:41;20.87;;;10.37;;
75165;SDS011;63747;48.042;10.088;2022-11-12T05:50:42;15.80;;;10.10;;
75165;SDS011;63747;48.042;10.088;2022-11-12T05:53:43;7.07;;;6.03;;
75165;SDS011;63747;48.042;10.088;2022-11-12T05:56:44;6.10;;;5.27;;
75165;SDS011;63747;48.042;10.088;2022-11-12T05:59:45;5.18;;;4.68;;
75165;SDS011;63747;48.042;10.088;2022-11-12T06:02:45;5.73;;;4.80;;
75165;SDS011;63747;48.042;10.088;2022-11-12T06:05:46;8.33;;;5.17;;
75165;SDS011;63747;48.042;10.088;2022-11-12T06:08:47;7.97;;;5.25;;
75165;SDS011;63747;48.042;10.088;2022-11-12T06:11:48;35.50;;;6.07;;
75165;SDS011;63747;48.042;10.088;2022-11-12T06:14:50;67.50;;;7.13;;
75165;SDS011;63747;48.042;10.088;2022-11-12T06:17:53;65.23;;;7.47;;
75165;SDS011;63747;48.042;10.088;2022-11-12T06:21:00;113.40;;;10.23;;
75165;SDS011;63747;48.042;10.088;2022-11-12T06:24:23;66.78;;;9.35;;
75165;SDS011;63747;48.042;10.088;2022-11-12T06:27:24;113.23;;;11.10;;
75165;SDS011;63747;48.042;10.088;2022-11-12T06:30:27;109.85;;;9.55;;
75165;SDS011;63747;48.042;10.088;2022-11-12T06:33:27;43.25;;;8.93;;
75165;SDS011;63747;48.042;10.088;2022-11-12T06:36:29;188.07;;;15.70;;
75165;SDS011;63747;48.042;10.088;2022-11-12T06:39:29;58.07;;;8.37;;
75165;SDS011;63747;48.042;10.088;2022-11-12T06:42:31;47.07;;;8.37;;
75165;SDS011;63747;48.042;10.088;2022-11-12T06:45:32;90.10;;;9.27;;
75165;SDS011;63747;48.042;10.088;2022-11-12T06:48:33;59.63;;;9.83;;
75165;SDS011;63747;48.042;10.088;2022-11-12T06:51:33;59.77;;;10.77;;
75165;SDS011;63747;48.042;10.088;2022-11-12T06:54:35;24.83;;;8.40;;
75165;SDS011;63747;48.042;10.088;2022-11-12T06:57:35;92.13;;;10.77;;
75165;SDS011;63747;48.042;10.088;2022-11-12T07:00:36;38.17;;;9.37;;
75165;SDS011;63747;48.042;10.088;2022-11-12T07:03:38;51.63;;;9.23;;
75165;SDS011;63747;48.042;10.088;2022-11-12T07:06:39;65.72;;;11.82;;
75165;SDS011;63747;48.042;10.088;2022-11-12T07:09:40;78.80;;;10.27;;
75165;SDS011;63747;48.042;10.088;2022-11-12T07:12:41;98.63;;;10.70;;
75165;SDS011;63747;48.042;10.088;2022-11-12T07:15:42;102.45;;;11.77;;
75165;SDS011;63747;48.042;10.088;2022-11-12T07:18:43;64.03;;;9.03;;
75165;SDS011;63747;48.042;10.088;2022-11-12T07:21:45;78.47;;;10.45;;
75165;SDS011;63747;48.042;10.088;2022-11-12T07:24:46;63.53;;;9.23;;
75165;SDS011;63747;48.042;10.088;2022-11-12T07:27:47;47.63;;;11.07;;
75165;SDS011;63747;48.042;10.088;2022-11-12T07:30:58;67.68;;;10.73;;
75165;SDS011;63747;48.042;10.088;2022-11-12T07:37:02;75.90;;;12.25;;
75165;SDS011;63747;48.042;10.088;2022-11-12T07:40:03;99.23;;;13.77;;
75165;SDS011;63747;48.042;10.088;2022-11-12T07:46:07;84.22;;;10.57;;
75165;SDS011;63747;48.042;10.088;2022-11-12T07:49:10;92.68;;;14.88;;
75165;SDS011;63747;48.042;10.088;2022-11-12T07:52:11;58.20;;;10.53;;
75165;SDS011;63747;48.042;10.088;2022-11-12T07:55:12;121.55;;;12.30;;
75165;SDS011;63747;48.042;10.088;2022-11-12T07:58:13;94.07;;;11.93;;
75165;SDS011;63747;48.042;10.088;2022-11-12T08:04:24;74.35;;;12.70;;
75165;SDS011;63747;48.042;10.088;2022-11-12T08:07:25;61.00;;;10.97;;
75165;SDS011;63747;48.042;10.088;2022-11-12T08:10:25;74.83;;;11.20;;
75165;SDS011;63747;48.042;10.088;2022-11-12T08:13:26;74.63;;;10.57;;
75165;SDS011;63747;48.042;10.088;2022-11-12T08:16:27;108.70;;;12.73;;
75165;SDS011;63747;48.042;10.088;2022-11-12T08:19:28;84.78;;;11.50;;
75165;SDS011;63747;48.042;10.088;2022-11-12T08:22:30;97.23;;;11.00;;
75165;SDS011;63747;48.042;10.088;2022-11-12T08:28:33;114.35;;;11.55;;
75165;SDS011;63747;48.042;10.088;2022-11-12T08:31:37;89.60;;;11.70;;
75165;SDS011;63747;48.042;10.088;2022-11-12T08:34:39;46.75;;;10.80;;
75165;SDS011;63747;48.042;10.088;2022-11-12T08:37:42;95.80;;;10.95;;
75165;SDS011;63747;48.042;10.088;2022-11-12T08:40:43;147.85;;;23.77;;
75165;SDS011;63747;48.042;10.088;2022-11-12T08:43:44;96.77;;;17.60;;
75165;SDS011;63747;48.042;10.088;2022-11-12T08:46:45;35.77;;;10.50;;
75165;SDS011;63747;48.042;10.088;2022-11-12T08:49:46;31.50;;;9.87;;
75165;SDS011;63747;48.042;10.088;2022-11-12T08:52:46;68.80;;;9.87;;
75165;SDS011;63747;48.042;10.088;2022-11-12T08:55:47;122.80;;;11.27;;
75165;SDS011;63747;48.042;10.088;2022-11-12T08:58:52;68.97;;;10.32;;
75165;SDS011;63747;48.042;10.088;2022-11-12T09:01:52;136.90;;;12.83;;
75165;SDS011;63747;48.042;10.088;2022-11-12T09:04:53;52.90;;;10.47;;
75165;SDS011;63747;48.042;10.088;2022-11-12T09:07:58;116.53;;;11.17;;
75165;SDS011;63747;48.042;10.088;2022-11-12T09:11:09;103.00;;;13.73;;
75165;SDS011;63747;48.042;10.088;2022-11-12T09:14:10;115.77;;;11.90;;
75165;SDS011;63747;48.042;10.088;2022-11-12T09:17:11;91.03;;;11.43;;
75165;SDS011;63747;48.042;10.088;2022-11-12T09:20:13;64.93;;;9.30;;
75165;SDS011;63747;48.042;10.088;2022-11-12T09:23:14;75.15;;;9.77;;
75165;SDS011;63747;48.042;10.088;2022-11-12T09:26:16;101.65;;;9.90;;
75165;SDS011;63747;48.042;10.088;2022-11-12T09:29:17;51.73;;;9.30;;
75165;SDS011;63747;48.042;10.088;2022-11-12T09:32:18;57.00;;;9.10;;
75165;SDS011;63747;48.042;10.088;2022-11-12T09:35:18;47.37;;;9.20;;
75165;SDS011;63747;48.042;10.088;2022-11-12T09:38:19;52.63;;;8.40;;
75165;SDS011;63747;48.042;10.088;2022-11-12T09:41:22;30.70;;;8.02;;
75165;SDS011;63747;48.042;10.088;2022-11-12T09:44:27;79.82;;;9.13;;
75165;SDS011;63747;48.042;10.088;2022-11-12T09:47:35;34.00;;;8.98;;
75165;SDS011;63747;48.042;10.088;2022-11-12T09:53:58;56.10;;;9.60;;
75165;SDS011;63747;48.042;10.088;2022-11-12T09:57:03;18.98;;;8.88;;
75165;SDS011;63747;48.042;10.088;2022-11-12T10:00:27;19.38;;;8.82;;
75165;SDS011;63747;48.042;10.088;2022-11-12T10:06:33;26.47;;;8.17;;
75165;SDS011;63747;48.042;10.088;2022-11-12T10:09:43;45.95;;;8.45;;
75165;SDS011;63747;48.042;10.088;2022-11-12T10:19:57;34.80;;;8.05;;
75165;SDS011;63747;48.042;10.088;2022-11-12T10:23:15;41.08;;;10.07;;
75165;SDS011;63747;48.042;10.088;2022-11-12T10:26:21;23.15;;;8.13;;
75165;SDS011;63747;48.042;10.088;2022-11-12T10:29:31;12.52;;;8.30;;
75165;SDS011;63747;48.042;10.088;2022-11-12T10:32:40;19.33;;;9.07;;
75165;SDS011;63747;48.042;10.088;2022-11-12T10:35:44;17.15;;;8.85;;
75165;SDS011;63747;48.042;10.088;2022-11-12T10:38:45;12.60;;;8.47;;
75165;SDS011;63747;48.042;10.088;2022-11-12T10:41:50;24.40;;;9.27;;
75165;SDS011;63747;48.042;10.088;2022-11-12T10:45:18;9.40;;;8.10;;
75165;SDS011;63747;48.042;10.088;2022-11-12T10:48:22;12.93;;;7.72;;
75165;SDS011;63747;48.042;10.088;2022-11-12T10:51:31;8.30;;;7.40;;
75165;SDS011;63747;48.042;10.088;2022-11-12T10:54:37;12.18;;;7.90;;
75165;SDS011;63747;48.042;10.088;2022-11-12T10:57:38;7.40;;;6.65;;
75165;SDS011;63747;48.042;10.088;2022-11-12T11:00:56;7.87;;;7.07;;
75165;SDS011;63747;48.042;10.088;2022-11-12T11:04:04;14.20;;;8.32;;
75165;SDS011;63747;48.042;10.088;2022-11-12T11:07:23;8.75;;;7.63;;
75165;SDS011;63747;48.042;10.088;2022-11-12T11:10:27;15.15;;;8.25;;
75165;SDS011;63747;48.042;10.088;2022-11-12T11:13:28;28.10;;;7.43;;
75165;SDS011;63747;48.042;10.088;2022-11-12T11:16:29;10.43;;;7.43;;
75165;SDS011;63747;48.042;10.088;2022-11-12T11:19:41;13.52;;;6.75;;
75165;SDS011;63747;48.042;10.088;2022-11-12T11:22:45;8.85;;;6.68;;
75165;SDS011;63747;48.042;10.088;2022-11-12T11:25:49;6.47;;;5.88;;
75165;SDS011;63747;48.042;10.088;2022-11-12T11:28:57;7.30;;;6.32;;
75165;SDS011;63747;48.042;10.088;2022-11-12T11:35:45;8.13;;;7.43;;
75165;SDS011;63747;48.042;10.088;2022-11-12T11:52:54;7.45;;;5.97;;
75165;SDS011;63747;48.042;10.088;2022-11-12T11:56:02;8.90;;;6.60;;
75165;SDS011;63747;48.042;10.088;2022-11-12T12:02:39;7.18;;;6.35;;
75165;SDS011;63747;48.042;10.088;2022-11-12T12:19:06;9.45;;;8.30;;
75165;SDS011;63747;48.042;10.088;2022-11-12T12:22:23;8.00;;;7.20;;
75165;SDS011;63747;48.042;10.088;2022-11-12T12:25:33;6.97;;;6.38;;
75165;SDS011;63747;48.042;10.088;2022-11-12T12:31:50;10.70;;;6.90;;
75165;SDS011;63747;48.042;10.088;2022-11-12T12:35:21;9.10;;;7.38;;
75165;SDS011;63747;48.042;10.088;2022-11-12T12:38:34;9.90;;;8.90;;
75165;SDS011;63747;48.042;10.088;2022-11-12T12:41:58;8.75;;;7.85;;
75165;SDS011;63747;48.042;10.088;2022-11-12T12:48:26;10.73;;;9.10;;
75165;SDS011;63747;48.042;10.088;2022-11-12T12:51:32;10.60;;;8.38;;
75165;SDS011;63747;48.042;10.088;2022-11-12T12:57:38;11.48;;;9.13;;
75165;SDS011;63747;48.042;10.088;2022-11-12T13:00:39;11.25;;;9.40;;
75165;SDS011;63747;48.042;10.088;2022-11-12T13:09:44;11.10;;;10.00;;
75165;SDS011;63747;48.042;10.088;2022-11-12T13:22:57;13.68;;;10.18;;
75165;SDS011;63747;48.042;10.088;2022-11-12T13:35:47;16.13;;;11.65;;
75165;SDS011;63747;48.042;10.088;2022-11-12T13:38:48;16.63;;;12.23;;
75165;SDS011;63747;48.042;10.088;2022-11-12T13:41:58;15.07;;;11.30;;
75165;SDS011;63747;48.042;10.088;2022-11-12T13:45:21;15.13;;;13.10;;
75165;SDS011;63747;48.042;10.088;2022-11-12T13:51:33;13.57;;;12.17;;
75165;SDS011;63747;48.042;10.088;2022-11-12T13:54:38;15.40;;;13.82;;
75165;SDS011;63747;48.042;10.088;2022-11-12T13:57:38;13.35;;;12.05;;
75165;SDS011;63747;48.042;10.088;2022-11-12T14:00:39;12.47;;;11.27;;
75165;SDS011;63747;48.042;10.088;2022-11-12T14:06:43;13.57;;;12.30;;
75165;SDS011;63747;48.042;10.088;2022-11-12T14:10:08;12.20;;;11.00;;
75165;SDS011;63747;48.042;10.088;2022-11-12T14:13:24;12.57;;;11.30;;
75165;SDS011;63747;48.042;10.088;2022-11-12T14:23:02;17.35;;;13.05;;
75165;SDS011;63747;48.042;10.088;2022-11-12T14:26:09;14.52;;;11.27;;
75165;SDS011;63747;48.042;10.088;2022-11-12T14:29:18;15.32;;;13.18;;
75165;SDS011;63747;48.042;10.088;2022-11-12T14:32:19;14.25;;;12.23;;
75165;SDS011;63747;48.042;10.088;2022-11-12T14:35:35;13.40;;;11.77;;
75165;SDS011;63747;48.042;10.088;2022-11-12T14:38:47;15.27;;;13.85;;
75165;SDS011;63747;48.042;10.088;2022-11-12T14:41:55;13.18;;;11.48;;
75165;SDS011;63747;48.042;10.088;2022-11-12T14:44:58;14.82;;;12.10;;
75165;SDS011;63747;48.042;10.088;2022-11-12T14:47:59;13.40;;;11.20;;
75165;SDS011;63747;48.042;10.088;2022-11-12T14:51:03;13.65;;;12.35;;
75165;SDS011;63747;48.042;10.088;2022-11-12T14:54:08;13.85;;;11.15;;
75165;SDS011;63747;48.042;10.088;2022-11-12T14:57:17;14.40;;;12.27;;
75165;SDS011;63747;48.042;10.088;2022-11-12T15:03:30;14.00;;;12.40;;
75165;SDS011;63747;48.042;10.088;2022-11-12T15:06:32;12.93;;;11.40;;
75165;SDS011;63747;48.042;10.088;2022-11-12T15:09:34;14.45;;;13.05;;
75165;SDS011;63747;48.042;10.088;2022-11-12T15:12:36;15.82;;;14.23;;
75165;SDS011;63747;48.042;10.088;2022-11-12T15:15:38;15.88;;;12.50;;
75165;SDS011;63747;48.042;10.088;2022-11-12T15:19:02;15.90;;;14.30;;
75165;SDS011;63747;48.042;10.088;2022-11-12T15:22:15;15.75;;;14.07;;
75165;SDS011;63747;48.042;10.088;2022-11-12T15:25:24;14.80;;;13.27;;
75165;SDS011;63747;48.042;10.088;2022-11-12T15:28:26;19.25;;;14.38;;
75165;SDS011;63747;48.042;10.088;2022-11-12T15:31:27;15.10;;;13.63;;
75165;SDS011;63747;48.042;10.088;2022-11-12T15:37:42;17.02;;;14.43;;
75165;SDS011;63747;48.042;10.088;2022-11-12T15:40:43;16.30;;;14.60;;
75165;SDS011;63747;48.042;10.088;2022-11-12T15:43:45;21.92;;;15.20;;
75165;SDS011;63747;48.042;10.088;2022-11-12T15:46:46;20.30;;;16.00;;
75165;SDS011;63747;48.042;10.088;2022-11-12T15:49:47;61.50;;;17.17;;
75165;SDS011;63747;48.042;10.088;2022-11-12T15:52:55;25.80;;;16.90;;
75165;SDS011;63747;48.042;10.088;2022-11-12T15:55:55;19.97;;;15.37;;
75165;SDS011;63747;48.042;10.088;2022-11-12T15:58:56;75.83;;;15.10;;
75165;SDS011;63747;48.042;10.088;2022-11-12T16:01:57;51.03;;;15.17;;
75165;SDS011;63747;48.042;10.088;2022-11-12T16:04:58;60.03;;;16.23;;
75165;SDS011;63747;48.042;10.088;2022-11-12T16:07:58;158.17;;;17.03;;
75165;SDS011;63747;48.042;10.088;2022-11-12T16:10:59;38.13;;;15.67;;
75165;SDS011;63747;48.042;10.088;2022-11-12T16:14:00;150.63;;;19.17;;
75165;SDS011;63747;48.042;10.088;2022-11-12T16:17:02;75.55;;;16.92;;
75165;SDS011;63747;48.042;10.088;2022-11-12T16:20:16;111.53;;;17.43;;
75165;SDS011;63747;48.042;10.088;2022-11-12T16:23:22;190.50;;;18.77;;
75165;SDS011;63747;48.042;10.088;2022-11-12T16:26:24;152.30;;;15.70;;
75165;SDS011;63747;48.042;10.088;2022-11-12T16:29:28;215.18;;;17.05;;
75165;SDS011;63747;48.042;10.088;2022-11-12T16:32:28;245.13;;;19.07;;
75165;SDS011;63747;48.042;10.088;2022-11-12T16:35:30;152.50;;;16.27;;
75165;SDS011;63747;48.042;10.088;2022-11-12T16:38:34;170.60;;;16.05;;
75165;SDS011;63747;48.042;10.088;2022-11-12T16:41:34;141.07;;;13.63;;
75165;SDS011;63747;48.042;10.088;2022-11-12T16:44:35;94.20;;;12.70;;
75165;SDS011;63747;48.042;10.088;2022-11-12T16:47:38;191.95;;;14.73;;
75165;SDS011;63747;48.042;10.088;2022-11-12T16:50:43;353.38;;;23.83;;
75165;SDS011;63747;48.042;10.088;2022-11-12T16:53:44;231.82;;;16.15;;
75165;SDS011;63747;48.042;10.088;2022-11-12T16:56:45;222.85;;;18.52;;
75165;SDS011;63747;48.042;10.088;2022-11-12T16:59:46;257.30;;;17.27;;
75165;SDS011;63747;48.042;10.088;2022-11-12T17:02:47;268.97;;;24.73;;
75165;SDS011;63747;48.042;10.088;2022-11-12T17:05:51;97.90;;;13.50;;
75165;SDS011;63747;48.042;10.088;2022-11-12T17:08:52;204.90;;;20.00;;
75165;SDS011;63747;48.042;10.088;2022-11-12T17:11:53;149.35;;;15.70;;
75165;SDS011;63747;48.042;10.088;2022-11-12T17:14:54;183.37;;;15.10;;
75165;SDS011;63747;48.042;10.088;2022-11-12T17:17:55;194.60;;;17.60;;
75165;SDS011;63747;48.042;10.088;2022-11-12T17:20:56;105.03;;;13.90;;
75165;SDS011;63747;48.042;10.088;2022-11-12T17:23:57;145.95;;;14.85;;
75165;SDS011;63747;48.042;10.088;2022-11-12T17:26:57;139.33;;;12.70;;
75165;SDS011;63747;48.042;10.088;2022-11-12T17:30:00;130.85;;;12.60;;
75165;SDS011;63747;48.042;10.088;2022-11-12T17:33:01;163.75;;;14.45;;
75165;SDS011;63747;48.042;10.088;2022-11-12T17:36:02;188.40;;;15.13;;
75165;SDS011;63747;48.042;10.088;2022-11-12T17:39:04;223.65;;;17.10;;
75165;SDS011;63747;48.042;10.088;2022-11-12T17:42:05;205.60;;;20.30;;
75165;SDS011;63747;48.042;10.088;2022-11-12T17:45:05;184.60;;;16.33;;
75165;SDS011;63747;48.042;10.088;2022-11-12T17:48:06;152.82;;;16.85;;
75165;SDS011;63747;48.042;10.088;2022-11-12T17:51:11;161.63;;;14.53;;
75165;SDS011;63747;48.042;10.088;2022-11-12T17:54:14;212.48;;;18.67;;
75165;SDS011;63747;48.042;10.088;2022-11-12T17:57:15;193.87;;;21.03;;
75165;SDS011;63747;48.042;10.088;2022-11-12T18:00:15;148.13;;;19.50;;
75165;SDS011;63747;48.042;10.088;2022-11-12T18:03:17;112.72;;;15.55;;
75165;SDS011;63747;48.042;10.088;2022-11-12T18:06:22;135.35;;;19.52;;
75165;SDS011;63747;48.042;10.088;2022-11-12T18:09:28;196.75;;;18.67;;
75165;SDS011;63747;48.042;10.088;2022-11-12T18:12:28;162.83;;;15.30;;
75165;SDS011;63747;48.042;10.088;2022-11-12T18:15:29;200.07;;;18.20;;
75165;SDS011;63747;48.042;10.088;2022-11-12T18:18:30;137.57;;;13.55;;
75165;SDS011;63747;48.042;10.088;2022-11-12T18:21:31;101.93;;;16.20;;
75165;SDS011;63747;48.042;10.088;2022-11-12T18:24:31;124.17;;;18.00;;
75165;SDS011;63747;48.042;10.088;2022-11-12T18:27:32;111.20;;;15.00;;
75165;SDS011;63747;48.042;10.088;2022-11-12T18:30:33;202.83;;;18.43;;
75165;SDS011;63747;48.042;10.088;2022-11-12T18:36:36;181.07;;;17.67;;
75165;SDS011;63747;48.042;10.088;2022-11-12T18:39:37;161.33;;;17.17;;
75165;SDS011;63747;48.042;10.088;2022-11-12T18:42:37;195.10;;;22.37;;
75165;SDS011;63747;48.042;10.088;2022-11-12T18:45:38;200.73;;;22.90;;
75165;SDS011;63747;48.042;10.088;2022-11-12T18:48:39;161.37;;;20.47;;
75165;SDS011;63747;48.042;10.088;2022-11-12T18:51:39;142.00;;;16.37;;
75165;SDS011;63747;48.042;10.088;2022-11-12T18:54:40;149.20;;;17.07;;
75165;SDS011;63747;48.042;10.088;2022-11-12T18:57:41;155.03;;;16.53;;
75165;SDS011;63747;48.042;10.088;2022-11-12T19:00:42;128.63;;;16.00;;
75165;SDS011;63747;48.042;10.088;2022-11-12T19:03:42;107.00;;;15.77;;
75165;SDS011;63747;48.042;10.088;2022-11-12T19:06:43;170.85;;;19.08;;
75165;SDS011;63747;48.042;10.088;2022-11-12T19:09:44;106.47;;;15.60;;
75165;SDS011;63747;48.042;10.088;2022-11-12T19:12:45;101.60;;;14.20;;
75165;SDS011;63747;48.042;10.088;2022-11-12T19:15:46;177.00;;;15.73;;
75165;SDS011;63747;48.042;10.088;2022-11-12T19:18:47;180.03;;;16.17;;
75165;SDS011;63747;48.042;10.088;2022-11-12T19:21:49;230.10;;;20.30;;
75165;SDS011;63747;48.042;10.088;2022-11-12T19:24:50;214.70;;;19.73;;
75165;SDS011;63747;48.042;10.088;2022-11-12T19:27:51;240.20;;;18.40;;
75165;SDS011;63747;48.042;10.088;2022-11-12T19:30:52;195.02;;;19.80;;
75165;SDS011;63747;48.042;10.088;2022-11-12T19:33:54;165.73;;;16.73;;
75165;SDS011;63747;48.042;10.088;2022-11-12T19:36:55;167.30;;;16.45;;
75165;SDS011;63747;48.042;10.088;2022-11-12T19:39:55;153.03;;;16.47;;
75165;SDS011;63747;48.042;10.088;2022-11-12T19:42:56;138.37;;;13.80;;
75165;SDS011;63747;48.042;10.088;2022-11-12T19:45:57;137.00;;;15.43;;
75165;SDS011;63747;48.042;10.088;2022-11-12T19:48:58;110.43;;;14.77;;